createdAt,value
2023-08-11T00:02:33.549Z,100.00
2023-08-11T00:05:39.464Z,100.00
2023-08-11T00:08:42.201Z,100.00
2023-08-11T00:11:44.865Z,100.00
2023-08-11T00:14:47.686Z,100.00
2023-08-11T00:17:58.696Z,100.00
2023-08-11T00:21:01.484Z,100.00
2023-08-11T00:24:04.432Z,100.00
2023-08-11T00:27:07.886Z,100.00
2023-08-11T00:30:12.283Z,100.00
2023-08-11T00:33:15.324Z,100.00
2023-08-11T00:36:18.408Z,100.00
2023-08-11T00:39:21.088Z,100.00
2023-08-11T00:42:23.737Z,100.00
2023-08-11T00:45:26.592Z,100.00
2023-08-11T00:48:43.922Z,100.00
2023-08-11T00:51:49.954Z,100.00
2023-08-11T00:54:55.320Z,100.00
2023-08-11T00:57:58.186Z,100.00
2023-08-11T01:01:01.195Z,100.00
2023-08-11T01:04:08.979Z,100.00
2023-08-11T01:07:35.179Z,100.00
2023-08-11T01:10:49.555Z,100.00
2023-08-11T01:14:04.909Z,100.00
2023-08-11T01:17:11.196Z,100.00
2023-08-11T01:20:17.424Z,100.00
2023-08-11T01:23:22.245Z,100.00
2023-08-11T01:26:25.317Z,100.00
2023-08-11T01:29:28.199Z,100.00
2023-08-11T01:32:31.100Z,100.00
2023-08-11T01:35:40.675Z,100.00
2023-08-11T01:38:45.010Z,100.00
2023-08-11T01:41:48.080Z,100.00
2023-08-11T01:44:51.006Z,100.00
2023-08-11T01:47:55.013Z,100.00
2023-08-11T01:50:57.880Z,100.00
2023-08-11T01:54:00.684Z,100.00
2023-08-11T01:57:04.044Z,100.00
2023-08-11T02:00:14.539Z,100.00
2023-08-11T02:03:17.258Z,100.00
2023-08-11T02:06:19.976Z,100.00
2023-08-11T02:09:23.679Z,100.00
2023-08-11T02:12:26.516Z,100.00
2023-08-11T02:15:29.467Z,100.00
2023-08-11T02:18:32.539Z,100.00
2023-08-11T02:21:38.749Z,100.00
2023-08-11T02:24:41.373Z,100.00
2023-08-11T02:27:45.067Z,100.00
2023-08-11T02:30:48.621Z,100.00
2023-08-11T02:33:51.303Z,100.00
2023-08-11T02:36:54.036Z,100.00
2023-08-11T02:39:56.944Z,100.00
2023-08-11T02:42:59.747Z,100.00
2023-08-11T02:46:02.565Z,100.00
2023-08-11T02:49:05.387Z,100.00
2023-08-11T02:52:08.571Z,100.00
2023-08-11T02:55:12.733Z,100.00
2023-08-11T02:58:15.562Z,100.00
2023-08-11T03:01:19.060Z,100.00
2023-08-11T03:04:22.010Z,100.00
2023-08-11T03:07:25.521Z,100.00
2023-08-11T03:10:29.899Z,100.00
2023-08-11T03:13:34.180Z,100.00
2023-08-11T03:16:37.318Z,100.00
2023-08-11T03:19:40.172Z,100.00
2023-08-11T03:22:45.257Z,100.00
2023-08-11T03:25:50.494Z,100.00
2023-08-11T03:28:55.880Z,100.00
2023-08-11T03:31:59.513Z,100.00
2023-08-11T03:35:03.981Z,100.00
2023-08-11T03:38:07.349Z,100.00
2023-08-11T03:41:10.924Z,100.00
2023-08-11T03:44:14.097Z,100.00
2023-08-11T03:47:16.915Z,100.00
2023-08-11T03:50:22.749Z,100.00
2023-08-11T03:53:25.408Z,100.00
2023-08-11T03:56:28.066Z,100.00
2023-08-11T03:59:30.915Z,100.00
2023-08-11T04:02:36.442Z,100.00
2023-08-11T04:05:40.530Z,100.00
2023-08-11T04:08:43.655Z,100.00
2023-08-11T04:11:46.423Z,100.00
2023-08-11T04:14:49.288Z,100.00
2023-08-11T04:17:52.828Z,100.00
2023-08-11T04:20:55.640Z,100.00
2023-08-11T04:23:59.179Z,100.00
2023-08-11T04:27:03.118Z,100.00
2023-08-11T04:30:07.197Z,100.00
2023-08-11T04:33:10.597Z,100.00
2023-08-11T04:36:14.558Z,100.00
2023-08-11T04:39:18.222Z,100.00
2023-08-11T04:42:21.490Z,100.00
2023-08-11T04:45:25.192Z,100.00
2023-08-11T04:48:28.101Z,100.00
2023-08-11T04:51:30.992Z,100.00
2023-08-11T04:54:33.892Z,100.00
2023-08-11T04:57:37.239Z,96.27
2023-08-11T05:00:41.834Z,94.10
2023-08-11T05:03:44.690Z,93.34
2023-08-11T05:06:47.488Z,90.07
2023-08-11T05:09:50.644Z,89.17
2023-08-11T05:12:53.477Z,88.83
2023-08-11T05:15:56.298Z,85.95
2023-08-11T05:18:59.020Z,85.47
2023-08-11T05:22:01.832Z,86.07
2023-08-11T05:25:05.743Z,86.77
2023-08-11T05:28:11.122Z,88.22
2023-08-11T05:31:16.649Z,88.76
2023-08-11T05:34:19.340Z,87.35
2023-08-11T05:37:24.229Z,84.68
2023-08-11T05:44:02.518Z,80.05
2023-08-11T05:47:07.306Z,77.50
2023-08-11T05:53:28.486Z,74.26
2023-08-11T05:56:31.311Z,70.64
2023-08-11T05:59:34.165Z,68.94
2023-08-11T06:02:37.010Z,65.64
2023-08-11T06:05:39.786Z,66.83
2023-08-11T06:08:42.569Z,65.34
2023-08-11T06:11:48.122Z,64.53
2023-08-11T06:14:56.758Z,63.81
2023-08-11T06:18:02.781Z,61.50
2023-08-11T06:21:37.228Z,58.54
2023-08-11T06:24:45.848Z,56.73
2023-08-11T06:28:46.058Z,58.28
2023-08-11T06:32:35.482Z,60.21
2023-08-11T06:35:38.632Z,59.61
2023-08-11T06:38:41.535Z,59.30
2023-08-11T06:41:44.604Z,59.29
2023-08-11T06:44:48.497Z,61.07
2023-08-11T06:47:51.215Z,59.96
2023-08-11T06:50:54.030Z,59.15
2023-08-11T06:54:01.043Z,57.79
2023-08-11T06:57:33.996Z,56.41
2023-08-11T07:00:38.128Z,53.69
2023-08-11T07:03:43.891Z,51.05
2023-08-11T07:07:18.362Z,49.23
2023-08-11T07:10:12.898Z,47.59
2023-08-11T07:13:15.750Z,44.33
2023-08-11T07:16:22.174Z,43.20
2023-08-11T07:19:26.296Z,40.47
2023-08-11T07:22:40.666Z,37.83
2023-08-11T07:25:44.436Z,37.32
2023-08-11T07:28:47.811Z,36.63
2023-08-11T07:31:50.507Z,35.69
2023-08-11T07:34:53.223Z,34.69
2023-08-11T07:37:56.337Z,33.43
2023-08-11T07:40:59.037Z,31.25
2023-08-11T07:44:01.701Z,30.40
2023-08-11T07:47:04.667Z,30.58
2023-08-11T07:50:08.019Z,31.09
2023-08-11T07:53:10.999Z,30.60
2023-08-11T07:56:14.360Z,28.53
2023-08-11T07:59:17.489Z,27.11
2023-08-11T08:02:20.370Z,29.76
2023-08-11T08:05:23.401Z,27.04
2023-08-11T08:08:26.097Z,27.32
2023-08-11T08:11:28.784Z,26.52
2023-08-11T08:14:31.655Z,24.69
2023-08-11T08:17:35.080Z,25.99
2023-08-11T08:20:37.819Z,24.52
2023-08-11T08:23:40.483Z,24.25
2023-08-11T08:26:44.723Z,23.65
2023-08-11T08:29:53.260Z,23.65
2023-08-11T08:32:56.249Z,21.16
2023-08-11T08:35:59.026Z,22.91
2023-08-11T08:39:01.762Z,21.80
2023-08-11T08:42:06.955Z,21.82
2023-08-11T08:45:10.182Z,21.48
2023-08-11T08:48:26.841Z,21.74
2023-08-11T08:51:31.465Z,21.40
2023-08-11T08:54:35.193Z,20.87
2023-08-11T08:57:38.577Z,21.67
2023-08-11T09:00:42.148Z,20.47
2023-08-11T09:03:46.022Z,21.52
2023-08-11T09:06:49.426Z,18.92
2023-08-11T09:09:52.526Z,20.42
2023-08-11T09:12:55.331Z,20.87
2023-08-11T09:16:00.835Z,19.98
2023-08-11T09:19:06.201Z,20.85
2023-08-11T09:22:14.519Z,20.94
2023-08-11T09:25:17.620Z,20.28
2023-08-11T09:28:20.325Z,20.91
2023-08-11T09:31:27.331Z,21.19
2023-08-11T09:34:30.894Z,18.70
2023-08-11T09:37:33.610Z,19.67
2023-08-11T09:40:37.122Z,19.25
2023-08-11T09:43:40.320Z,20.46
2023-08-11T09:46:44.012Z,18.69
2023-08-11T09:49:46.977Z,19.35
2023-08-11T09:52:50.080Z,19.05
2023-08-11T09:55:56.339Z,19.56
2023-08-11T09:59:03.327Z,19.47
2023-08-11T10:02:13.231Z,19.25
2023-08-11T10:05:18.444Z,18.30
2023-08-11T10:08:23.543Z,18.49
2023-08-11T10:11:29.585Z,18.27
2023-08-11T10:14:35.744Z,17.72
2023-08-11T10:17:39.818Z,17.46
2023-08-11T10:20:43.028Z,18.34
2023-08-11T10:23:46.500Z,17.46
2023-08-11T10:26:50.529Z,18.60
2023-08-11T10:29:55.326Z,18.24
2023-08-11T10:33:10.374Z,19.65
2023-08-11T10:36:17.583Z,18.16
2023-08-11T10:39:21.711Z,18.88
2023-08-11T10:42:24.746Z,17.56
2023-08-11T10:45:29.124Z,16.25
2023-08-11T10:48:33.998Z,17.46
2023-08-11T10:51:38.947Z,16.29
2023-08-11T10:54:51.071Z,17.63
2023-08-11T10:58:13.099Z,19.38
2023-08-11T11:01:16.056Z,18.36
2023-08-11T11:04:21.132Z,18.31
2023-08-11T11:07:24.837Z,18.36
2023-08-11T11:10:39.671Z,17.99
2023-08-11T11:13:52.050Z,17.14
2023-08-11T11:16:56.418Z,17.89
2023-08-11T11:20:01.105Z,17.70
2023-08-11T11:23:06.786Z,16.23
2023-08-11T11:26:09.704Z,15.81
2023-08-11T11:29:13.166Z,16.17
2023-08-11T11:32:18.079Z,16.01
2023-08-11T11:35:20.844Z,16.45
2023-08-11T11:38:23.580Z,16.62
2023-08-11T11:41:26.459Z,17.74
2023-08-11T11:44:30.590Z,19.35
2023-08-11T11:47:34.629Z,17.65
2023-08-11T11:50:37.633Z,16.34
2023-08-11T11:53:41.270Z,16.99
2023-08-11T11:56:54.214Z,16.44
2023-08-11T12:00:11.696Z,14.55
2023-08-11T12:03:16.396Z,15.35
2023-08-11T12:06:20.433Z,15.11
2023-08-11T12:09:23.257Z,14.73
2023-08-11T12:12:28.119Z,14.81
2023-08-11T12:15:32.546Z,15.38
2023-08-11T12:18:36.264Z,15.78
2023-08-11T12:21:39.075Z,14.95
2023-08-11T12:24:41.871Z,15.06
2023-08-11T12:27:45.752Z,15.49
2023-08-11T12:30:49.378Z,15.78
2023-08-11T12:33:52.201Z,15.48
2023-08-11T12:36:55.118Z,15.44
2023-08-11T12:39:57.750Z,15.50
2023-08-11T12:43:00.465Z,15.45
2023-08-11T12:46:03.316Z,17.04
2023-08-11T12:49:06.384Z,16.08
2023-08-11T12:52:09.321Z,16.77
2023-08-11T12:55:13.226Z,20.02
2023-08-11T12:58:27.575Z,21.68
2023-08-11T13:01:30.460Z,19.38
2023-08-11T13:04:33.294Z,17.38
2023-08-11T13:07:38.055Z,16.91
2023-08-11T13:10:41.076Z,16.91
2023-08-11T13:13:43.784Z,16.52
2023-08-11T13:16:47.073Z,17.05
2023-08-11T13:19:49.867Z,17.76
2023-08-11T13:22:52.650Z,16.31
2023-08-11T13:25:55.310Z,16.93
2023-08-11T13:28:59.844Z,19.91
2023-08-11T13:32:02.620Z,18.75
2023-08-11T13:35:06.459Z,17.46
2023-08-11T13:38:09.314Z,16.97
2023-08-11T13:41:12.213Z,17.21
2023-08-11T13:44:15.049Z,16.93
2023-08-11T13:47:18.343Z,16.11
2023-08-11T13:50:21.028Z,15.92
2023-08-11T13:53:23.860Z,17.62
2023-08-11T13:56:26.572Z,19.45
2023-08-11T13:59:29.274Z,21.40
2023-08-11T14:02:32.174Z,22.23
2023-08-11T14:05:35.855Z,22.47
2023-08-11T14:08:38.713Z,22.25
2023-08-11T14:11:41.411Z,21.79
2023-08-11T14:14:44.221Z,22.35
2023-08-11T14:17:47.078Z,22.92
2023-08-11T14:20:49.822Z,23.27
2023-08-11T14:23:52.566Z,23.37
2023-08-11T14:26:55.466Z,23.50
2023-08-11T14:29:58.297Z,23.80
2023-08-11T14:33:01.365Z,23.98
2023-08-11T14:39:14.885Z,23.38
2023-08-11T14:42:19.122Z,24.43
2023-08-11T14:45:21.957Z,23.97
2023-08-11T14:48:27.001Z,23.70
2023-08-11T14:51:30.845Z,23.26
2023-08-11T14:54:33.810Z,23.62
2023-08-11T14:57:36.522Z,23.28
2023-08-11T15:00:39.414Z,24.36
2023-08-11T15:03:42.869Z,24.66
2023-08-11T15:06:45.763Z,25.81
2023-08-11T15:09:48.446Z,25.46
2023-08-11T15:12:51.454Z,25.50
2023-08-11T15:15:54.277Z,26.00
2023-08-11T15:18:57.034Z,26.40
2023-08-11T15:21:59.869Z,25.64
2023-08-11T15:25:05.619Z,25.56
2023-08-11T15:28:08.358Z,26.17
2023-08-11T15:31:11.319Z,25.51
2023-08-11T15:34:14.074Z,25.63
2023-08-11T15:37:16.757Z,25.77
2023-08-11T15:40:19.461Z,26.65
2023-08-11T15:43:22.150Z,26.54
2023-08-11T15:46:24.891Z,26.66
2023-08-11T15:49:27.994Z,27.08
2023-08-11T15:52:30.756Z,27.58
2023-08-11T15:55:36.613Z,26.86
2023-08-11T15:58:41.333Z,27.18
2023-08-11T16:01:52.737Z,27.42
2023-08-11T16:05:02.483Z,27.65
2023-08-11T16:08:05.835Z,27.76
2023-08-11T16:11:08.719Z,27.87
2023-08-11T16:14:13.182Z,28.39
2023-08-11T16:17:16.022Z,28.43
2023-08-11T16:20:18.716Z,28.73
2023-08-11T16:23:21.358Z,28.21
2023-08-11T16:26:24.103Z,28.08
2023-08-11T16:29:26.860Z,28.17
2023-08-11T16:32:29.675Z,28.48
2023-08-11T16:35:32.444Z,28.55
2023-08-11T16:38:35.163Z,29.01
2023-08-11T16:41:37.919Z,29.42
2023-08-11T16:44:40.661Z,29.53
2023-08-11T16:47:43.444Z,29.68
2023-08-11T16:50:46.938Z,29.83
2023-08-11T16:53:49.796Z,29.92
2023-08-11T16:56:52.491Z,31.12
2023-08-11T16:59:55.369Z,31.29
2023-08-11T17:02:58.196Z,31.26
2023-08-11T17:06:00.981Z,32.12
2023-08-11T17:09:05.382Z,31.34
2023-08-11T17:12:08.900Z,32.80
2023-08-11T17:15:12.254Z,32.37
2023-08-11T17:18:15.058Z,32.44
2023-08-11T17:21:20.870Z,33.41
2023-08-11T17:24:23.568Z,33.52
2023-08-11T17:27:26.270Z,33.41
2023-08-11T17:30:30.967Z,33.78
2023-08-11T17:33:33.765Z,34.66
2023-08-11T17:36:36.729Z,35.04
2023-08-11T17:39:39.542Z,35.46
2023-08-11T17:42:42.485Z,35.65
2023-08-11T17:48:47.958Z,36.52
2023-08-11T17:51:50.618Z,36.89
2023-08-11T17:54:53.469Z,37.36
2023-08-11T17:57:56.308Z,38.49
2023-08-11T18:00:59.402Z,39.49
2023-08-11T18:04:06.015Z,40.56
2023-08-11T18:07:10.072Z,41.29
2023-08-11T18:10:12.851Z,42.34
2023-08-11T18:13:15.792Z,43.19
2023-08-11T18:16:18.521Z,43.52
2023-08-11T18:19:21.192Z,44.24
2023-08-11T18:22:23.953Z,44.85
2023-08-11T18:25:26.762Z,45.71
2023-08-11T18:28:29.449Z,46.24
2023-08-11T18:31:32.151Z,46.92
2023-08-11T18:34:35.005Z,47.98
2023-08-11T18:37:37.935Z,48.73
2023-08-11T18:40:40.685Z,49.24
2023-08-11T18:43:43.520Z,50.01
2023-08-11T18:46:46.246Z,50.66
2023-08-11T18:49:49.120Z,51.02
2023-08-11T18:52:51.824Z,51.78
2023-08-11T18:55:54.604Z,52.41
2023-08-11T18:58:57.331Z,52.94
2023-08-11T19:02:00.097Z,53.72
2023-08-11T19:05:02.926Z,53.69
2023-08-11T19:08:07.725Z,54.00
2023-08-11T19:11:10.489Z,54.30
2023-08-11T19:14:13.795Z,54.49
2023-08-11T19:17:16.584Z,55.50
2023-08-11T19:20:19.613Z,55.54
2023-08-11T19:23:22.467Z,56.27
2023-08-11T19:26:25.399Z,56.35
2023-08-11T19:29:28.150Z,56.97
2023-08-11T19:32:30.886Z,56.99
2023-08-11T19:35:33.738Z,57.23
2023-08-11T19:38:42.380Z,57.49
2023-08-11T19:41:45.078Z,57.42
2023-08-11T19:44:47.848Z,57.12
2023-08-11T19:47:50.660Z,57.27
2023-08-11T19:50:53.693Z,57.11
2023-08-11T19:53:56.383Z,57.21
2023-08-11T19:56:59.126Z,57.20
2023-08-11T20:00:02.047Z,56.85
2023-08-11T20:03:16.871Z,56.94
2023-08-11T20:06:19.708Z,57.12
2023-08-11T20:09:25.252Z,57.18
2023-08-11T20:12:28.033Z,57.79
2023-08-11T20:15:31.289Z,58.13
2023-08-11T20:18:34.091Z,58.30
2023-08-11T20:21:37.103Z,58.43
2023-08-11T20:24:39.808Z,58.67
2023-08-11T20:27:42.638Z,58.62
2023-08-11T20:30:45.538Z,58.53
2023-08-11T20:33:48.667Z,59.29
2023-08-11T20:36:51.739Z,59.31
2023-08-11T20:39:54.411Z,59.48
2023-08-11T20:42:59.842Z,59.93
2023-08-11T20:46:02.647Z,60.23
2023-08-11T20:49:05.419Z,60.61
2023-08-11T20:52:08.082Z,60.89
2023-08-11T20:55:10.950Z,61.33
2023-08-11T20:58:13.672Z,61.61
2023-08-11T21:01:16.458Z,62.25
2023-08-11T21:04:19.315Z,63.13
2023-08-11T21:07:22.029Z,62.74
2023-08-11T21:10:24.740Z,62.93
2023-08-11T21:13:27.439Z,63.32
2023-08-11T21:16:30.400Z,63.58
2023-08-11T21:19:33.267Z,63.95
2023-08-11T21:22:36.013Z,63.98
2023-08-11T21:25:38.695Z,64.32
2023-08-11T21:28:41.472Z,64.41
2023-08-11T21:31:44.301Z,64.65
2023-08-11T21:34:47.104Z,65.43
2023-08-11T21:37:50.259Z,67.00
2023-08-11T21:40:52.932Z,69.84
2023-08-11T21:43:55.680Z,69.54
2023-08-11T21:46:58.601Z,69.49
2023-08-11T21:50:01.800Z,68.98
2023-08-11T21:53:17.115Z,70.58
2023-08-11T21:56:24.258Z,75.63
2023-08-11T21:59:28.543Z,78.52
2023-08-11T22:02:31.354Z,80.63
2023-08-11T22:05:34.225Z,80.55
2023-08-11T22:08:36.946Z,81.73
2023-08-11T22:11:45.400Z,83.67
2023-08-11T22:14:48.322Z,85.40
2023-08-11T22:17:51.110Z,85.15
2023-08-11T22:20:53.898Z,84.66
2023-08-11T22:23:57.167Z,84.96
2023-08-11T22:26:59.849Z,85.78
2023-08-11T22:30:03.931Z,86.63
2023-08-11T22:33:07.127Z,87.58
2023-08-11T22:36:09.920Z,88.23
2023-08-11T22:39:12.714Z,88.90
2023-08-11T22:42:15.491Z,88.78
2023-08-11T22:45:18.331Z,89.07
2023-08-11T22:48:21.269Z,89.23
2023-08-11T22:51:24.118Z,89.34
2023-08-11T22:54:26.876Z,89.66
2023-08-11T22:57:29.637Z,90.30
2023-08-11T23:00:32.521Z,90.72
2023-08-11T23:03:35.355Z,91.43
2023-08-11T23:06:38.005Z,91.93
2023-08-11T23:09:40.812Z,92.46
2023-08-11T23:12:43.685Z,92.42
2023-08-11T23:15:46.401Z,92.19
2023-08-11T23:18:49.634Z,92.30
2023-08-11T23:21:52.407Z,92.24
2023-08-11T23:24:55.406Z,93.74
2023-08-11T23:27:58.225Z,94.18
2023-08-11T23:31:00.955Z,94.49
2023-08-11T23:34:03.876Z,94.87
2023-08-11T23:37:06.680Z,94.28
2023-08-11T23:40:10.246Z,93.73
2023-08-11T23:43:13.855Z,93.80
2023-08-11T23:46:16.594Z,94.64
2023-08-11T23:49:19.416Z,95.43
2023-08-11T23:52:24.421Z,96.09
2023-08-11T23:55:28.024Z,96.61
2023-08-11T23:58:31.046Z,97.12
